createdAt,value
2024-03-20T00:00:47.540Z,41.40
2024-03-20T00:03:39.353Z,42.00
2024-03-20T00:06:11.048Z,46.40
2024-03-20T00:08:42.829Z,37.30
2024-03-20T00:11:14.578Z,29.60
2024-03-20T00:13:46.335Z,28.40
2024-03-20T00:16:18.128Z,28.70
2024-03-20T00:18:49.768Z,31.80
2024-03-20T00:21:22.905Z,36.30
2024-03-20T00:23:54.532Z,43.10
2024-03-20T00:26:26.268Z,58.00
2024-03-20T00:28:58.097Z,53.80
2024-03-20T00:31:29.619Z,42.90
2024-03-20T00:34:01.527Z,46.20
2024-03-20T00:36:33.541Z,36.00
2024-03-20T00:39:07.009Z,41.00
2024-03-20T00:41:38.644Z,35.10
2024-03-20T00:44:10.460Z,37.80
2024-03-20T00:46:42.200Z,43.00
2024-03-20T00:49:14.032Z,58.00
2024-03-20T00:51:45.809Z,50.90
2024-03-20T00:54:17.339Z,46.70
2024-03-20T00:56:48.880Z,46.10
2024-03-20T00:59:21.568Z,47.50
2024-03-20T01:01:53.021Z,47.60
2024-03-20T01:04:25.028Z,51.70
2024-03-20T01:06:56.892Z,68.60
2024-03-20T01:09:28.676Z,53.70
2024-03-20T01:12:00.509Z,54.60
2024-03-20T01:14:32.174Z,54.70
2024-03-20T01:17:03.777Z,53.00
2024-03-20T01:19:35.619Z,56.60
2024-03-20T01:22:07.575Z,56.70
2024-03-20T01:24:39.450Z,58.60
2024-03-20T01:27:11.117Z,49.10
2024-03-20T01:29:42.900Z,48.70
2024-03-20T01:32:14.559Z,49.80
2024-03-20T01:34:46.344Z,33.70
2024-03-20T01:37:17.993Z,31.10
2024-03-20T01:39:49.803Z,34.20
2024-03-20T01:42:21.356Z,28.40
2024-03-20T01:45:10.861Z,30.90
2024-03-20T01:47:43.446Z,26.70
2024-03-20T01:50:16.681Z,26.40
2024-03-20T01:52:56.019Z,28.10
2024-03-20T01:55:27.871Z,28.70
2024-03-20T01:57:59.569Z,29.90
2024-03-20T02:00:31.583Z,31.10
2024-03-20T02:03:04.868Z,29.30
2024-03-20T02:05:36.747Z,28.20
2024-03-20T02:08:09.237Z,31.10
2024-03-20T02:10:41.061Z,30.60
2024-03-20T02:13:12.827Z,28.60
2024-03-20T02:15:44.592Z,32.40
2024-03-20T02:18:16.359Z,30.20
2024-03-20T02:20:48.064Z,33.50
2024-03-20T02:23:20.254Z,30.20
2024-03-20T02:25:51.859Z,29.90
2024-03-20T02:28:23.607Z,26.70
2024-03-20T02:30:55.202Z,26.40
2024-03-20T02:33:27.085Z,23.50
2024-03-20T02:35:59.008Z,25.90
2024-03-20T02:38:33.370Z,22.50
2024-03-20T02:41:06.109Z,22.60
2024-03-20T02:43:38.274Z,22.40
2024-03-20T02:46:09.955Z,21.40
2024-03-20T02:48:41.725Z,20.40
2024-03-20T02:51:13.268Z,26.80
2024-03-20T02:53:44.941Z,29.50
2024-03-20T02:56:17.031Z,25.50
2024-03-20T02:58:48.829Z,26.30
2024-03-20T03:01:20.459Z,29.70
2024-03-20T03:03:52.630Z,27.80
2024-03-20T03:06:24.413Z,27.30
2024-03-20T03:08:56.079Z,30.70
2024-03-20T03:11:28.444Z,29.20
2024-03-20T03:14:00.122Z,48.50
2024-03-20T03:16:31.924Z,95.10
2024-03-20T03:19:05.560Z,93.80
2024-03-20T03:21:38.173Z,91.60
2024-03-20T03:24:10.184Z,124.70
2024-03-20T03:26:42.292Z,117.80
2024-03-20T03:29:13.916Z,88.20
2024-03-20T03:31:45.776Z,72.80
2024-03-20T03:34:18.729Z,55.20
2024-03-20T03:36:50.455Z,49.20
2024-03-20T03:39:22.084Z,43.80
2024-03-20T03:41:53.913Z,40.50
2024-03-20T03:44:25.926Z,43.80
2024-03-20T03:46:57.721Z,40.10
2024-03-20T03:49:29.409Z,43.10
2024-03-20T03:52:01.176Z,40.30
2024-03-20T03:54:32.744Z,35.20
2024-03-20T03:57:05.102Z,37.10
2024-03-20T03:59:36.789Z,37.20
2024-03-20T04:02:09.807Z,32.00
2024-03-20T04:04:41.645Z,31.50
2024-03-20T04:07:13.494Z,35.40
2024-03-20T04:09:45.137Z,36.00
2024-03-20T04:12:17.014Z,34.90
2024-03-20T04:14:48.596Z,31.40
2024-03-20T04:17:20.247Z,35.00
2024-03-20T04:19:51.921Z,34.80
2024-03-20T04:22:23.673Z,39.30
2024-03-20T04:24:55.500Z,39.30
2024-03-20T04:27:27.196Z,39.00
2024-03-20T04:29:58.955Z,48.50
2024-03-20T04:32:31.510Z,45.60
2024-03-20T04:35:03.464Z,47.40
2024-03-20T04:37:35.316Z,48.50
2024-03-20T04:40:08.581Z,42.50
2024-03-20T04:42:40.481Z,40.40
2024-03-20T04:45:14.064Z,39.20
2024-03-20T04:47:45.875Z,43.70
2024-03-20T04:50:17.576Z,45.00
2024-03-20T04:53:01.724Z,46.00
2024-03-20T04:55:33.400Z,43.20
2024-03-20T04:58:05.364Z,43.20
2024-03-20T05:00:37.466Z,50.40
2024-03-20T05:03:09.348Z,41.50
2024-03-20T05:05:41.011Z,51.40
2024-03-20T05:08:12.923Z,33.00
2024-03-20T05:10:44.611Z,31.30
2024-03-20T05:13:16.504Z,26.40
2024-03-20T05:15:48.184Z,28.90
2024-03-20T05:18:20.057Z,33.10
2024-03-20T05:20:51.803Z,34.60
2024-03-20T05:23:23.876Z,30.80
2024-03-20T05:25:59.136Z,40.60
2024-03-20T05:31:01.083Z,44.70
2024-03-20T05:33:32.840Z,40.30
2024-03-20T05:36:04.912Z,38.50
2024-03-20T05:38:36.740Z,32.90
2024-03-20T05:41:08.401Z,33.40
2024-03-20T05:43:39.992Z,40.80
2024-03-20T05:46:11.766Z,56.00
2024-03-20T05:48:44.389Z,41.00
2024-03-20T05:51:16.192Z,47.60
2024-03-20T05:53:47.778Z,50.20
2024-03-20T05:56:19.863Z,51.90
2024-03-20T05:58:52.543Z,48.60
2024-03-20T06:01:25.054Z,42.70
2024-03-20T06:03:56.807Z,43.50
2024-03-20T06:06:29.420Z,40.60
2024-03-20T06:09:16.785Z,61.20
2024-03-20T06:11:48.670Z,77.90
2024-03-20T06:14:20.522Z,63.10
2024-03-20T06:16:52.308Z,61.00
2024-03-20T06:19:24.450Z,61.20
2024-03-20T06:21:56.230Z,65.90
2024-03-20T06:24:27.960Z,46.70
2024-03-20T06:26:59.524Z,50.00
2024-03-20T06:29:31.729Z,50.60
2024-03-20T06:32:03.454Z,32.30
2024-03-20T06:34:35.287Z,40.60
2024-03-20T06:37:11.495Z,52.50
2024-03-20T06:39:43.348Z,52.90
2024-03-20T06:42:17.545Z,58.60
2024-03-20T06:44:49.376Z,52.40
2024-03-20T06:47:24.406Z,61.40
2024-03-20T06:49:57.061Z,40.00
2024-03-20T06:52:28.943Z,38.90
2024-03-20T06:55:00.887Z,41.60
2024-03-20T06:57:32.646Z,28.70
2024-03-20T07:00:08.194Z,30.50
2024-03-20T07:02:40.293Z,31.30
2024-03-20T07:05:15.821Z,34.20
2024-03-20T07:07:47.927Z,25.80
2024-03-20T07:10:19.854Z,44.80
2024-03-20T07:12:51.730Z,27.20
2024-03-20T07:15:23.566Z,31.20
2024-03-20T07:17:55.371Z,27.80
2024-03-20T07:20:27.998Z,31.70
2024-03-20T07:23:00.002Z,28.90
2024-03-20T07:25:33.597Z,27.40
2024-03-20T07:30:37.336Z,30.70
2024-03-20T07:33:10.615Z,29.20
2024-03-20T07:35:48.676Z,34.40
2024-03-20T07:38:20.197Z,37.80
2024-03-20T07:40:55.669Z,28.10
2024-03-20T07:43:27.288Z,24.20
2024-03-20T07:45:58.992Z,39.90
2024-03-20T07:48:30.687Z,32.30
2024-03-20T07:51:02.566Z,31.70
2024-03-20T07:53:34.239Z,39.60
2024-03-20T07:56:06.544Z,38.40
2024-03-20T07:58:38.948Z,27.70
2024-03-20T08:01:12.739Z,23.10
2024-03-20T08:03:45.503Z,28.00
2024-03-20T08:06:17.246Z,25.20
2024-03-20T08:08:48.810Z,28.80
2024-03-20T08:11:20.627Z,27.50
2024-03-20T08:13:52.464Z,28.10
2024-03-20T08:16:24.111Z,33.50
2024-03-20T08:18:55.925Z,27.10
2024-03-20T08:21:28.226Z,36.50
2024-03-20T08:24:00.570Z,32.10
2024-03-20T08:26:32.808Z,26.10
2024-03-20T08:29:04.556Z,22.50
2024-03-20T08:31:36.434Z,29.70
2024-03-20T08:34:08.197Z,25.60
2024-03-20T08:36:40.077Z,42.50
2024-03-20T08:39:12.038Z,47.00
2024-03-20T08:41:44.013Z,41.10
2024-03-20T08:44:15.509Z,43.30
2024-03-20T08:46:47.256Z,35.10
2024-03-20T08:49:19.047Z,28.20
2024-03-20T08:51:50.886Z,25.80
2024-03-20T08:54:22.621Z,22.80
2024-03-20T08:56:54.351Z,21.10
2024-03-20T08:59:26.162Z,18.20
2024-03-20T09:01:57.893Z,26.50
2024-03-20T09:04:29.671Z,25.60
2024-03-20T09:07:01.524Z,26.70
2024-03-20T09:09:36.387Z,22.10
2024-03-20T09:12:57.092Z,18.50
2024-03-20T09:15:31.978Z,20.00
2024-03-20T09:18:03.618Z,21.20
2024-03-20T09:20:35.321Z,22.80
2024-03-20T09:23:07.752Z,22.00
2024-03-20T09:25:39.413Z,21.40
2024-03-20T09:28:11.191Z,22.30
2024-03-20T09:30:43.258Z,22.60
2024-03-20T09:33:15.205Z,22.70
2024-03-20T09:35:46.757Z,20.10
2024-03-20T09:38:18.224Z,23.70
2024-03-20T09:40:50.828Z,28.90
2024-03-20T09:43:23.886Z,30.20
2024-03-20T09:45:58.067Z,27.10
2024-03-20T09:48:37.163Z,24.60
2024-03-20T09:51:14.067Z,26.10
2024-03-20T09:53:47.497Z,33.50
2024-03-20T09:56:22.034Z,160.40
2024-03-20T09:58:54.822Z,71.50
2024-03-20T10:01:26.938Z,42.40
2024-03-20T10:03:59.559Z,38.00
2024-03-20T10:06:32.692Z,28.30
2024-03-20T10:09:08.594Z,31.80
2024-03-20T10:11:40.039Z,33.10
2024-03-20T10:14:14.624Z,25.20
2024-03-20T10:16:49.672Z,34.20
2024-03-20T10:19:26.646Z,25.60
2024-03-20T10:21:58.257Z,24.60
2024-03-20T10:24:32.232Z,21.80
2024-03-20T10:27:06.737Z,21.30
2024-03-20T10:29:40.891Z,24.00
2024-03-20T10:32:13.877Z,25.40
2024-03-20T10:34:47.811Z,21.10
2024-03-20T10:37:20.534Z,19.30
2024-03-20T10:39:54.371Z,21.30
2024-03-20T10:42:26.714Z,52.10
2024-03-20T10:44:59.189Z,30.60
2024-03-20T10:47:31.027Z,20.40
2024-03-20T10:50:04.275Z,18.20
2024-03-20T10:52:36.648Z,19.80
2024-03-20T10:55:12.562Z,23.80
2024-03-20T10:57:44.179Z,17.80
2024-03-20T11:00:20.918Z,16.20
2024-03-20T11:02:52.727Z,19.30
2024-03-20T11:05:41.733Z,17.60
2024-03-20T11:08:13.528Z,23.70
2024-03-20T11:10:50.446Z,21.70
2024-03-20T11:13:25.258Z,18.00
2024-03-20T11:15:56.934Z,20.00
2024-03-20T11:18:28.894Z,18.40
2024-03-20T11:21:01.692Z,26.50
2024-03-20T11:23:34.581Z,28.80
2024-03-20T11:26:07.939Z,21.60
2024-03-20T11:28:39.642Z,18.10
2024-03-20T11:31:11.413Z,24.90
2024-03-20T11:33:44.344Z,22.50
2024-03-20T11:36:19.640Z,25.90
2024-03-20T11:38:51.876Z,23.30
2024-03-20T11:41:23.581Z,17.60
2024-03-20T11:43:55.187Z,20.10
2024-03-20T11:46:27.146Z,28.50
2024-03-20T11:48:59.073Z,23.20
2024-03-20T11:51:30.949Z,20.60
2024-03-20T11:54:04.780Z,24.30
2024-03-20T11:56:38.428Z,24.10
2024-03-20T11:59:10.790Z,22.60
2024-03-20T12:01:42.506Z,18.50
2024-03-20T12:04:14.560Z,26.60
2024-03-20T12:06:46.552Z,30.40
2024-03-20T12:09:18.823Z,22.30
2024-03-20T12:11:50.425Z,23.70
2024-03-20T12:14:22.249Z,18.20
2024-03-20T12:16:54.752Z,22.10
2024-03-20T12:19:26.297Z,17.80
2024-03-20T12:21:58.101Z,21.40
2024-03-20T12:24:29.699Z,18.90
2024-03-20T12:27:01.476Z,18.20
2024-03-20T12:29:33.501Z,16.90
2024-03-20T12:32:05.824Z,20.80
2024-03-20T12:34:38.159Z,25.70
2024-03-20T12:37:12.298Z,20.80
2024-03-20T12:39:45.664Z,18.80
2024-03-20T12:42:17.447Z,19.30
2024-03-20T12:44:49.225Z,19.00
2024-03-20T12:47:21.145Z,16.50
2024-03-20T12:49:53.880Z,21.40
2024-03-20T12:52:26.511Z,18.90
2024-03-20T12:54:59.531Z,14.40
2024-03-20T12:57:31.140Z,13.00
2024-03-20T13:00:03.283Z,14.60
2024-03-20T13:02:35.735Z,17.20
2024-03-20T13:05:10.561Z,17.20
2024-03-20T13:07:42.581Z,15.60
2024-03-20T13:10:14.899Z,15.00
2024-03-20T13:12:46.822Z,16.10
2024-03-20T13:15:18.445Z,14.50
2024-03-20T13:17:50.349Z,18.70
2024-03-20T13:20:22.306Z,16.40
2024-03-20T13:22:53.951Z,21.00
2024-03-20T13:25:30.280Z,18.80
2024-03-20T13:28:02.809Z,14.70
2024-03-20T13:30:34.818Z,18.30
2024-03-20T13:33:07.007Z,16.50
2024-03-20T13:35:38.588Z,17.90
2024-03-20T13:38:15.313Z,24.00
2024-03-20T13:40:52.352Z,21.60
2024-03-20T13:43:40.290Z,24.90
2024-03-20T13:46:13.047Z,19.10
2024-03-20T13:48:45.099Z,19.90
2024-03-20T13:51:18.972Z,21.20
2024-03-20T13:53:52.518Z,17.90
2024-03-20T13:56:24.364Z,15.20
2024-03-20T13:58:56.173Z,17.90
2024-03-20T14:01:28.391Z,15.40
2024-03-20T14:04:00.805Z,20.00
2024-03-20T14:06:32.328Z,22.40
2024-03-20T14:09:04.116Z,29.50
2024-03-20T14:11:35.742Z,23.10
2024-03-20T14:14:07.647Z,31.00
2024-03-20T14:16:39.666Z,35.50
2024-03-20T14:19:11.442Z,42.30
2024-03-20T14:21:43.042Z,35.10
2024-03-20T14:24:16.948Z,19.60
2024-03-20T14:26:49.377Z,24.80
2024-03-20T14:29:21.003Z,35.70
2024-03-20T14:31:52.976Z,108.80
2024-03-20T14:34:25.111Z,39.00
2024-03-20T14:36:56.937Z,25.60
2024-03-20T14:39:29.284Z,28.60
2024-03-20T14:42:00.925Z,193.70
2024-03-20T14:44:33.475Z,126.80
2024-03-20T14:47:07.210Z,59.10
2024-03-20T14:49:38.936Z,36.30
2024-03-20T14:52:15.845Z,24.10
2024-03-20T14:54:47.490Z,44.30
2024-03-20T14:57:19.502Z,35.10
2024-03-20T14:59:51.149Z,48.70
2024-03-20T15:02:29.562Z,29.00
2024-03-20T15:05:01.144Z,21.10
2024-03-20T15:07:33.322Z,31.50
2024-03-20T15:10:05.266Z,43.60
2024-03-20T15:12:36.949Z,49.90
2024-03-20T15:15:10.896Z,26.60
2024-03-20T15:17:43.052Z,31.80
2024-03-20T15:20:14.605Z,21.60
2024-03-20T15:22:46.879Z,21.00
2024-03-20T15:25:18.638Z,28.00
2024-03-20T15:27:51.024Z,31.30
2024-03-20T15:30:22.697Z,26.50
2024-03-20T15:32:54.424Z,27.50
2024-03-20T15:35:26.235Z,56.60
2024-03-20T15:37:58.115Z,55.40
2024-03-20T15:40:29.793Z,53.50
2024-03-20T15:43:01.395Z,84.00
2024-03-20T15:45:32.873Z,128.00
2024-03-20T15:48:06.596Z,56.30
2024-03-20T15:50:39.415Z,87.60
2024-03-20T15:53:17.237Z,101.10
2024-03-20T15:58:50.613Z,48.20
2024-03-20T16:01:21.697Z,96.20
2024-03-20T16:03:51.033Z,69.90
2024-03-20T16:06:20.530Z,108.10
2024-03-20T16:08:49.262Z,145.40
2024-03-20T16:11:18.084Z,86.30
2024-03-20T16:13:48.028Z,62.20
2024-03-20T16:16:19.992Z,55.40
2024-03-20T16:18:48.939Z,62.30
2024-03-20T16:21:17.563Z,71.50
2024-03-20T16:23:46.300Z,47.00
2024-03-20T16:26:15.801Z,218.20
2024-03-20T16:28:45.426Z,272.80
2024-03-20T16:31:14.270Z,199.00
2024-03-20T16:33:42.985Z,387.90
2024-03-20T16:36:13.847Z,362.30
2024-03-20T16:38:44.039Z,267.90
2024-03-20T16:41:19.919Z,147.10
2024-03-20T16:43:54.827Z,111.10
2024-03-20T16:46:23.726Z,124.70
2024-03-20T16:48:52.482Z,151.90
2024-03-20T16:51:21.284Z,90.70
2024-03-20T16:53:49.937Z,88.00
2024-03-20T16:56:18.667Z,98.20
2024-03-20T16:58:47.134Z,209.00
2024-03-20T17:01:15.901Z,162.60
2024-03-20T17:03:45.121Z,125.00
2024-03-20T17:06:13.540Z,134.50
2024-03-20T17:08:42.639Z,125.10
2024-03-20T17:11:11.331Z,113.00
2024-03-20T17:13:40.059Z,111.10
2024-03-20T17:16:08.873Z,130.10
2024-03-20T17:18:37.491Z,112.00
2024-03-20T17:21:07.650Z,100.90
2024-03-20T17:23:36.248Z,112.10
2024-03-20T17:26:05.515Z,123.10
2024-03-20T17:28:35.295Z,105.20
2024-03-20T17:31:04.374Z,82.60
2024-03-20T17:33:33.062Z,66.90
2024-03-20T17:36:07.349Z,69.90
2024-03-20T17:38:36.134Z,63.20
2024-03-20T17:41:05.112Z,55.10
2024-03-20T17:43:34.031Z,65.30
2024-03-20T17:46:04.239Z,72.50
2024-03-20T17:48:33.175Z,58.80
2024-03-20T17:51:02.756Z,56.80
2024-03-20T17:53:32.038Z,62.30
2024-03-20T17:56:00.505Z,63.50
2024-03-20T17:58:29.298Z,65.20
2024-03-20T18:00:57.899Z,67.90
2024-03-20T18:03:26.670Z,118.90
2024-03-20T18:05:55.696Z,79.90
2024-03-20T18:08:24.391Z,64.40
2024-03-20T18:10:53.281Z,65.00
2024-03-20T18:13:22.489Z,100.40
2024-03-20T18:15:55.219Z,84.80
2024-03-20T18:18:24.698Z,107.20
2024-03-20T18:20:53.381Z,95.30
2024-03-20T18:23:22.826Z,125.50
2024-03-20T18:25:51.476Z,88.70
2024-03-20T18:28:20.244Z,67.80
2024-03-20T18:30:49.600Z,97.80
2024-03-20T18:33:18.587Z,81.10
2024-03-20T18:35:47.585Z,69.30
2024-03-20T18:38:16.410Z,62.40
2024-03-20T18:40:45.686Z,61.00
2024-03-20T18:43:14.209Z,82.70
2024-03-20T18:45:42.932Z,71.20
2024-03-20T18:48:14.271Z,63.50
2024-03-20T18:50:43.494Z,53.80
2024-03-20T18:53:12.020Z,59.70
2024-03-20T18:55:40.870Z,67.60
2024-03-20T18:58:09.384Z,61.00
2024-03-20T19:00:38.100Z,55.50
2024-03-20T19:03:06.737Z,52.80
2024-03-20T19:05:36.023Z,51.20
2024-03-20T19:08:05.846Z,46.30
2024-03-20T19:10:34.319Z,47.40
2024-03-20T19:13:03.046Z,60.40
2024-03-20T19:15:32.843Z,47.20
2024-03-20T19:18:01.808Z,46.40
2024-03-20T19:20:30.689Z,41.30
2024-03-20T19:22:59.370Z,37.80
2024-03-20T19:25:32.553Z,39.30
2024-03-20T19:28:01.384Z,31.10
2024-03-20T19:30:30.072Z,35.20
2024-03-20T19:33:00.722Z,34.80
2024-03-20T19:35:29.336Z,38.00
2024-03-20T19:37:58.379Z,33.70
2024-03-20T19:40:28.143Z,46.90
2024-03-20T19:42:56.785Z,59.60
2024-03-20T19:45:25.816Z,44.60
2024-03-20T19:47:54.612Z,34.60
2024-03-20T19:50:23.332Z,34.30
2024-03-20T19:52:52.286Z,45.70
2024-03-20T19:55:21.194Z,31.50
2024-03-20T19:57:50.293Z,41.10
2024-03-20T20:00:22.259Z,39.60
2024-03-20T20:02:53.931Z,45.10
2024-03-20T20:05:22.675Z,41.80
2024-03-20T20:07:51.518Z,43.10
2024-03-20T20:10:20.406Z,35.80
2024-03-20T20:12:49.464Z,46.10
2024-03-20T20:15:19.683Z,45.60
2024-03-20T20:17:48.352Z,44.70
2024-03-20T20:20:18.847Z,46.90
2024-03-20T20:22:47.997Z,46.10
2024-03-20T20:25:18.162Z,83.00
2024-03-20T20:27:49.119Z,142.60
2024-03-20T20:30:18.774Z,173.00
2024-03-20T20:32:48.552Z,141.10
2024-03-20T20:35:17.092Z,65.10
2024-03-20T20:37:45.832Z,103.90
2024-03-20T20:40:16.839Z,109.70
2024-03-20T20:42:45.572Z,189.30
2024-03-20T20:45:14.264Z,179.70
2024-03-20T20:47:42.911Z,121.90
2024-03-20T20:50:12.232Z,193.60
2024-03-20T20:52:40.847Z,166.20
2024-03-20T20:55:13.195Z,162.00
2024-03-20T20:57:42.005Z,151.40
2024-03-20T21:00:14.169Z,241.40
2024-03-20T21:03:01.074Z,326.70
2024-03-20T21:05:44.431Z,210.80
2024-03-20T21:08:31.482Z,112.10
2024-03-20T21:11:26.659Z,128.40
2024-03-20T21:14:13.362Z,114.80
2024-03-20T21:17:00.383Z,94.30
2024-03-20T21:19:47.703Z,113.10
2024-03-20T21:22:16.732Z,115.70
2024-03-20T21:24:46.004Z,131.70
2024-03-20T21:27:14.687Z,146.80
2024-03-20T21:29:43.594Z,79.80
2024-03-20T21:32:12.427Z,60.70
2024-03-20T21:34:41.465Z,123.10
2024-03-20T21:37:11.054Z,103.60
2024-03-20T21:39:40.842Z,106.30
2024-03-20T21:42:10.788Z,43.20
2024-03-20T21:44:40.635Z,77.50
2024-03-20T21:47:12.058Z,95.20
2024-03-20T21:49:41.777Z,95.70
2024-03-20T21:52:10.829Z,148.70
2024-03-20T21:54:39.573Z,140.60
2024-03-20T21:57:08.218Z,132.20
2024-03-20T21:59:39.204Z,117.90
2024-03-20T22:02:16.841Z,93.40
2024-03-20T22:04:45.647Z,104.80
2024-03-20T22:07:14.372Z,77.70
2024-03-20T22:10:05.920Z,66.40
2024-03-20T22:12:32.734Z,93.30
2024-03-20T22:15:01.258Z,113.30
2024-03-20T22:17:31.271Z,88.00
2024-03-20T22:20:00.193Z,104.70
2024-03-20T22:22:28.893Z,116.60
2024-03-20T22:24:57.579Z,109.90
2024-03-20T22:27:26.384Z,144.30
2024-03-20T22:29:54.890Z,132.00
2024-03-20T22:32:23.771Z,99.60
2024-03-20T22:34:52.333Z,114.10
2024-03-20T22:37:21.850Z,83.70
2024-03-20T22:39:50.480Z,43.10
2024-03-20T22:42:19.362Z,70.80
2024-03-20T22:44:47.885Z,75.40
2024-03-20T22:47:18.452Z,67.70
2024-03-20T22:49:48.827Z,51.00
2024-03-20T22:52:17.593Z,52.40
2024-03-20T22:54:46.199Z,55.90
2024-03-20T22:57:15.043Z,38.90
2024-03-20T22:59:43.591Z,34.40
2024-03-20T23:02:12.058Z,27.50
2024-03-20T23:04:42.499Z,26.80
2024-03-20T23:07:11.167Z,29.90
2024-03-20T23:09:39.847Z,29.70
2024-03-20T23:12:10.255Z,27.70
2024-03-20T23:14:39.186Z,29.40
2024-03-20T23:17:10.745Z,33.90
2024-03-20T23:19:39.527Z,34.20
2024-03-20T23:22:08.166Z,34.00
2024-03-20T23:24:36.876Z,35.60
2024-03-20T23:27:05.921Z,34.10
2024-03-20T23:29:34.715Z,31.20
2024-03-20T23:32:04.215Z,37.00
2024-03-20T23:34:33.811Z,39.10
2024-03-20T23:37:02.800Z,33.40
2024-03-20T23:39:32.910Z,33.70
2024-03-20T23:42:02.826Z,36.10
2024-03-20T23:44:31.476Z,34.10
2024-03-20T23:47:00.191Z,36.20
2024-03-20T23:49:29.128Z,35.70
2024-03-20T23:51:58.223Z,36.60
2024-03-20T23:54:26.999Z,33.80
2024-03-20T23:56:55.665Z,34.90
2024-03-20T23:59:24.454Z,33.10
